sensor_id;sensor_type;location;lat;lon;timestamp;temperature;humidity
46364;DHT22;32071;49.036;9.344;2023-06-04T00:00:30;16.50;78.90
46364;DHT22;32071;49.036;9.344;2023-06-04T00:02:55;16.50;78.00
46364;DHT22;32071;49.036;9.344;2023-06-04T00:05:21;16.50;78.40
46364;DHT22;32071;49.036;9.344;2023-06-04T00:07:51;16.50;78.90
46364;DHT22;32071;49.036;9.344;2023-06-04T00:10:16;16.40;79.00
46364;DHT22;32071;49.036;9.344;2023-06-04T00:12:42;16.30;79.00
46364;DHT22;32071;49.036;9.344;2023-06-04T00:15:08;16.20;79.70
46364;DHT22;32071;49.036;9.344;2023-06-04T00:17:33;16.20;79.80
46364;DHT22;32071;49.036;9.344;2023-06-04T00:19:59;16.10;80.10
46364;DHT22;32071;49.036;9.344;2023-06-04T00:22:25;16.00;79.70
46364;DHT22;32071;49.036;9.344;2023-06-04T00:24:50;16.00;80.50
46364;DHT22;32071;49.036;9.344;2023-06-04T00:27:16;15.90;80.90
46364;DHT22;32071;49.036;9.344;2023-06-04T00:29:41;15.90;78.10
46364;DHT22;32071;49.036;9.344;2023-06-04T00:32:07;15.90;78.80
46364;DHT22;32071;49.036;9.344;2023-06-04T00:34:33;15.90;79.40
46364;DHT22;32071;49.036;9.344;2023-06-04T00:36:58;15.90;78.70
46364;DHT22;32071;49.036;9.344;2023-06-04T00:39:26;15.90;79.30
46364;DHT22;32071;49.036;9.344;2023-06-04T00:41:52;15.80;81.10
46364;DHT22;32071;49.036;9.344;2023-06-04T00:44:18;15.70;82.30
46364;DHT22;32071;49.036;9.344;2023-06-04T00:46:44;15.60;80.60
46364;DHT22;32071;49.036;9.344;2023-06-04T00:49:11;15.60;83.20
46364;DHT22;32071;49.036;9.344;2023-06-04T00:51:38;15.50;82.60
46364;DHT22;32071;49.036;9.344;2023-06-04T00:54:04;15.40;83.80
46364;DHT22;32071;49.036;9.344;2023-06-04T00:56:35;15.30;83.40
46364;DHT22;32071;49.036;9.344;2023-06-04T00:59:03;15.20;84.20
46364;DHT22;32071;49.036;9.344;2023-06-04T01:01:49;15.10;84.30
46364;DHT22;32071;49.036;9.344;2023-06-04T01:04:24;15.00;83.50
46364;DHT22;32071;49.036;9.344;2023-06-04T01:06:51;14.90;85.10
46364;DHT22;32071;49.036;9.344;2023-06-04T01:09:18;14.70;87.40
46364;DHT22;32071;49.036;9.344;2023-06-04T01:11:44;14.50;86.00
46364;DHT22;32071;49.036;9.344;2023-06-04T01:14:10;14.50;86.90
46364;DHT22;32071;49.036;9.344;2023-06-04T01:25:18;14.20;88.50
46364;DHT22;32071;49.036;9.344;2023-06-04T01:27:49;14.20;90.00
46364;DHT22;32071;49.036;9.344;2023-06-04T01:30:19;14.10;90.30
46364;DHT22;32071;49.036;9.344;2023-06-04T01:32:45;14.00;90.50
46364;DHT22;32071;49.036;9.344;2023-06-04T01:35:12;13.90;91.30
46364;DHT22;32071;49.036;9.344;2023-06-04T01:37:38;13.80;91.10
46364;DHT22;32071;49.036;9.344;2023-06-04T01:40:03;13.70;91.40
46364;DHT22;32071;49.036;9.344;2023-06-04T01:42:30;13.60;91.80
46364;DHT22;32071;49.036;9.344;2023-06-04T01:44:56;13.50;91.80
46364;DHT22;32071;49.036;9.344;2023-06-04T01:47:22;13.50;92.50
46364;DHT22;32071;49.036;9.344;2023-06-04T01:49:47;13.40;92.70
46364;DHT22;32071;49.036;9.344;2023-06-04T01:52:13;13.30;92.90
46364;DHT22;32071;49.036;9.344;2023-06-04T01:54:38;13.20;92.90
46364;DHT22;32071;49.036;9.344;2023-06-04T01:57:04;13.10;93.30
46364;DHT22;32071;49.036;9.344;2023-06-04T01:59:31;13.00;93.70
46364;DHT22;32071;49.036;9.344;2023-06-04T02:01:57;12.90;93.70
46364;DHT22;32071;49.036;9.344;2023-06-04T02:04:23;12.90;94.10
46364;DHT22;32071;49.036;9.344;2023-06-04T02:06:50;12.70;94.20
46364;DHT22;32071;49.036;9.344;2023-06-04T02:09:15;12.60;94.40
46364;DHT22;32071;49.036;9.344;2023-06-04T02:11:41;12.50;95.20
46364;DHT22;32071;49.036;9.344;2023-06-04T02:14:07;12.40;95.70
46364;DHT22;32071;49.036;9.344;2023-06-04T02:16:32;12.40;96.10
46364;DHT22;32071;49.036;9.344;2023-06-04T02:18:58;12.30;95.90
46364;DHT22;32071;49.036;9.344;2023-06-04T02:21:24;12.30;96.20
46364;DHT22;32071;49.036;9.344;2023-06-04T02:23:50;12.30;96.80
46364;DHT22;32071;49.036;9.344;2023-06-04T02:26:15;12.20;97.10
46364;DHT22;32071;49.036;9.344;2023-06-04T02:28:41;12.20;97.40
46364;DHT22;32071;49.036;9.344;2023-06-04T02:31:07;12.20;97.90
46364;DHT22;32071;49.036;9.344;2023-06-04T02:33:32;12.00;97.90
46364;DHT22;32071;49.036;9.344;2023-06-04T02:35:58;12.00;98.30
46364;DHT22;32071;49.036;9.344;2023-06-04T02:38:23;11.90;98.50
46364;DHT22;32071;49.036;9.344;2023-06-04T02:40:49;11.90;98.70
46364;DHT22;32071;49.036;9.344;2023-06-04T02:43:14;11.80;99.20
46364;DHT22;32071;49.036;9.344;2023-06-04T02:45:41;11.70;99.20
46364;DHT22;32071;49.036;9.344;2023-06-04T02:48:06;11.60;99.40
46364;DHT22;32071;49.036;9.344;2023-06-04T02:50:32;11.60;99.30
46364;DHT22;32071;49.036;9.344;2023-06-04T02:52:58;11.60;99.70
46364;DHT22;32071;49.036;9.344;2023-06-04T02:55:24;11.60;99.80
46364;DHT22;32071;49.036;9.344;2023-06-04T02:57:50;11.50;99.90
46364;DHT22;32071;49.036;9.344;2023-06-04T03:00:17;11.50;99.90
46364;DHT22;32071;49.036;9.344;2023-06-04T03:02:44;11.50;99.90
46364;DHT22;32071;49.036;9.344;2023-06-04T03:05:12;11.40;99.90
46364;DHT22;32071;49.036;9.344;2023-06-04T03:07:38;11.40;99.90
46364;DHT22;32071;49.036;9.344;2023-06-04T03:10:04;11.30;99.90
46364;DHT22;32071;49.036;9.344;2023-06-04T03:12:30;11.30;99.90
46364;DHT22;32071;49.036;9.344;2023-06-04T03:14:55;11.30;99.90
46364;DHT22;32071;49.036;9.344;2023-06-04T03:17:21;11.20;99.90
46364;DHT22;32071;49.036;9.344;2023-06-04T03:19:47;11.20;99.90
46364;DHT22;32071;49.036;9.344;2023-06-04T03:22:13;11.10;99.90
46364;DHT22;32071;49.036;9.344;2023-06-04T03:24:41;11.10;99.90
46364;DHT22;32071;49.036;9.344;2023-06-04T03:27:08;11.10;99.90
46364;DHT22;32071;49.036;9.344;2023-06-04T03:29:34;11.10;99.90
46364;DHT22;32071;49.036;9.344;2023-06-04T03:32:00;11.10;99.90
46364;DHT22;32071;49.036;9.344;2023-06-04T03:34:27;11.10;99.90
46364;DHT22;32071;49.036;9.344;2023-06-04T03:36:55;11.10;99.90
46364;DHT22;32071;49.036;9.344;2023-06-04T03:39:21;11.20;99.90
46364;DHT22;32071;49.036;9.344;2023-06-04T03:41:47;11.20;99.90
46364;DHT22;32071;49.036;9.344;2023-06-04T03:44:14;11.20;99.90
46364;DHT22;32071;49.036;9.344;2023-06-04T03:46:41;11.20;99.90
46364;DHT22;32071;49.036;9.344;2023-06-04T03:49:06;11.20;99.90
46364;DHT22;32071;49.036;9.344;2023-06-04T03:51:32;11.30;99.90
46364;DHT22;32071;49.036;9.344;2023-06-04T03:53:59;11.30;99.90
46364;DHT22;32071;49.036;9.344;2023-06-04T03:56:24;11.30;99.90
46364;DHT22;32071;49.036;9.344;2023-06-04T03:58:52;11.30;99.90
46364;DHT22;32071;49.036;9.344;2023-06-04T04:01:18;11.30;99.90
46364;DHT22;32071;49.036;9.344;2023-06-04T04:03:43;11.30;99.90
46364;DHT22;32071;49.036;9.344;2023-06-04T04:06:13;11.30;99.90
46364;DHT22;32071;49.036;9.344;2023-06-04T04:08:39;11.40;99.90
46364;DHT22;32071;49.036;9.344;2023-06-04T04:11:16;11.40;99.90
46364;DHT22;32071;49.036;9.344;2023-06-04T04:13:44;11.50;99.90
46364;DHT22;32071;49.036;9.344;2023-06-04T04:16:10;11.50;99.90
46364;DHT22;32071;49.036;9.344;2023-06-04T04:18:36;11.60;99.90
46364;DHT22;32071;49.036;9.344;2023-06-04T04:21:03;11.70;99.90
46364;DHT22;32071;49.036;9.344;2023-06-04T04:23:29;11.80;99.90
46364;DHT22;32071;49.036;9.344;2023-06-04T04:25:55;11.80;99.90
46364;DHT22;32071;49.036;9.344;2023-06-04T04:28:22;12.00;99.90
46364;DHT22;32071;49.036;9.344;2023-06-04T04:30:47;12.10;99.90
46364;DHT22;32071;49.036;9.344;2023-06-04T04:33:14;12.20;99.90
46364;DHT22;32071;49.036;9.344;2023-06-04T04:35:44;12.20;99.90
46364;DHT22;32071;49.036;9.344;2023-06-04T04:38:10;12.30;99.90
46364;DHT22;32071;49.036;9.344;2023-06-04T04:40:36;12.30;99.90
46364;DHT22;32071;49.036;9.344;2023-06-04T04:43:02;12.30;99.90
46364;DHT22;32071;49.036;9.344;2023-06-04T04:45:28;12.40;99.90
46364;DHT22;32071;49.036;9.344;2023-06-04T04:47:53;12.50;99.90
46364;DHT22;32071;49.036;9.344;2023-06-04T04:50:19;12.60;99.90
46364;DHT22;32071;49.036;9.344;2023-06-04T04:52:44;12.70;99.90
46364;DHT22;32071;49.036;9.344;2023-06-04T04:55:10;12.80;99.90
46364;DHT22;32071;49.036;9.344;2023-06-04T04:57:37;12.80;99.90
46364;DHT22;32071;49.036;9.344;2023-06-04T05:00:03;12.90;99.90
46364;DHT22;32071;49.036;9.344;2023-06-04T05:02:35;12.90;99.90
46364;DHT22;32071;49.036;9.344;2023-06-04T05:05:01;12.90;99.90
46364;DHT22;32071;49.036;9.344;2023-06-04T05:07:27;12.90;99.90
46364;DHT22;32071;49.036;9.344;2023-06-04T05:09:53;13.00;99.90
46364;DHT22;32071;49.036;9.344;2023-06-04T05:12:18;13.10;99.90
46364;DHT22;32071;49.036;9.344;2023-06-04T05:14:44;13.10;99.90
46364;DHT22;32071;49.036;9.344;2023-06-04T05:17:10;13.20;99.90
46364;DHT22;32071;49.036;9.344;2023-06-04T05:19:36;13.30;99.90
46364;DHT22;32071;49.036;9.344;2023-06-04T05:22:02;13.40;99.90
46364;DHT22;32071;49.036;9.344;2023-06-04T05:24:28;13.40;99.90
46364;DHT22;32071;49.036;9.344;2023-06-04T05:26:55;13.50;99.90
46364;DHT22;32071;49.036;9.344;2023-06-04T05:29:22;13.50;99.70
46364;DHT22;32071;49.036;9.344;2023-06-04T05:31:47;13.50;99.90
46364;DHT22;32071;49.036;9.344;2023-06-04T05:34:13;13.50;99.90
46364;DHT22;32071;49.036;9.344;2023-06-04T05:36:42;13.60;99.90
46364;DHT22;32071;49.036;9.344;2023-06-04T05:39:08;13.50;99.70
46364;DHT22;32071;49.036;9.344;2023-06-04T05:41:35;13.50;99.20
46364;DHT22;32071;49.036;9.344;2023-06-04T05:44:01;13.60;99.90
46364;DHT22;32071;49.036;9.344;2023-06-04T05:46:27;13.60;99.60
46364;DHT22;32071;49.036;9.344;2023-06-04T05:48:53;13.60;99.20
46364;DHT22;32071;49.036;9.344;2023-06-04T05:51:19;13.80;99.50
46364;DHT22;32071;49.036;9.344;2023-06-04T05:53:45;13.90;98.10
46364;DHT22;32071;49.036;9.344;2023-06-04T05:56:11;14.00;98.10
46364;DHT22;32071;49.036;9.344;2023-06-04T05:58:36;14.20;97.70
46364;DHT22;32071;49.036;9.344;2023-06-04T06:01:02;14.30;98.30
46364;DHT22;32071;49.036;9.344;2023-06-04T06:03:28;14.40;97.60
46364;DHT22;32071;49.036;9.344;2023-06-04T06:05:54;14.40;97.30
46364;DHT22;32071;49.036;9.344;2023-06-04T06:08:21;14.50;96.90
46364;DHT22;32071;49.036;9.344;2023-06-04T06:10:46;14.60;96.40
46364;DHT22;32071;49.036;9.344;2023-06-04T06:13:12;14.70;96.30
46364;DHT22;32071;49.036;9.344;2023-06-04T06:15:38;14.80;96.60
46364;DHT22;32071;49.036;9.344;2023-06-04T06:18:04;14.90;96.70
46364;DHT22;32071;49.036;9.344;2023-06-04T06:20:29;14.90;95.60
46364;DHT22;32071;49.036;9.344;2023-06-04T06:22:55;15.10;95.70
46364;DHT22;32071;49.036;9.344;2023-06-04T06:25:20;15.20;95.60
46364;DHT22;32071;49.036;9.344;2023-06-04T06:27:46;15.30;95.40
46364;DHT22;32071;49.036;9.344;2023-06-04T06:30:13;15.40;95.10
46364;DHT22;32071;49.036;9.344;2023-06-04T06:32:39;15.50;94.90
46364;DHT22;32071;49.036;9.344;2023-06-04T06:35:05;15.70;94.10
46364;DHT22;32071;49.036;9.344;2023-06-04T06:37:31;15.80;94.10
46364;DHT22;32071;49.036;9.344;2023-06-04T06:39:57;15.90;93.90
46364;DHT22;32071;49.036;9.344;2023-06-04T06:42:23;16.00;93.60
46364;DHT22;32071;49.036;9.344;2023-06-04T06:44:48;16.10;93.50
46364;DHT22;32071;49.036;9.344;2023-06-04T06:47:14;16.20;93.70
46364;DHT22;32071;49.036;9.344;2023-06-04T06:49:40;16.30;94.40
46364;DHT22;32071;49.036;9.344;2023-06-04T06:52:06;16.40;93.90
46364;DHT22;32071;49.036;9.344;2023-06-04T06:54:33;16.50;93.60
46364;DHT22;32071;49.036;9.344;2023-06-04T06:56:59;16.60;92.70
46364;DHT22;32071;49.036;9.344;2023-06-04T06:59:25;16.70;93.00
46364;DHT22;32071;49.036;9.344;2023-06-04T07:01:51;16.80;92.70
46364;DHT22;32071;49.036;9.344;2023-06-04T07:04:16;16.90;93.40
46364;DHT22;32071;49.036;9.344;2023-06-04T07:06:43;17.00;93.30
46364;DHT22;32071;49.036;9.344;2023-06-04T07:09:08;17.10;92.40
46364;DHT22;32071;49.036;9.344;2023-06-04T07:11:34;17.20;92.40
46364;DHT22;32071;49.036;9.344;2023-06-04T07:14:00;17.30;92.70
46364;DHT22;32071;49.036;9.344;2023-06-04T07:16:29;17.30;92.50
46364;DHT22;32071;49.036;9.344;2023-06-04T07:18:55;17.50;92.50
46364;DHT22;32071;49.036;9.344;2023-06-04T07:21:20;17.60;91.70
46364;DHT22;32071;49.036;9.344;2023-06-04T07:23:47;17.70;91.50
46364;DHT22;32071;49.036;9.344;2023-06-04T07:26:15;17.80;91.50
46364;DHT22;32071;49.036;9.344;2023-06-04T07:28:41;17.90;91.20
46364;DHT22;32071;49.036;9.344;2023-06-04T07:31:07;18.00;90.40
46364;DHT22;32071;49.036;9.344;2023-06-04T07:33:33;18.10;91.60
46364;DHT22;32071;49.036;9.344;2023-06-04T07:35:58;18.20;91.40
46364;DHT22;32071;49.036;9.344;2023-06-04T07:38:24;18.30;90.80
46364;DHT22;32071;49.036;9.344;2023-06-04T07:40:50;18.30;90.60
46364;DHT22;32071;49.036;9.344;2023-06-04T07:43:16;18.40;90.60
46364;DHT22;32071;49.036;9.344;2023-06-04T07:45:41;18.50;91.10
46364;DHT22;32071;49.036;9.344;2023-06-04T07:48:09;18.60;90.20
46364;DHT22;32071;49.036;9.344;2023-06-04T07:50:36;18.60;90.10
46364;DHT22;32071;49.036;9.344;2023-06-04T07:53:01;18.70;89.80
46364;DHT22;32071;49.036;9.344;2023-06-04T07:55:27;18.90;88.50
46364;DHT22;32071;49.036;9.344;2023-06-04T07:57:52;19.00;88.10
46364;DHT22;32071;49.036;9.344;2023-06-04T08:00:18;19.20;86.40
46364;DHT22;32071;49.036;9.344;2023-06-04T08:02:44;19.30;85.30
46364;DHT22;32071;49.036;9.344;2023-06-04T08:05:09;19.40;87.10
46364;DHT22;32071;49.036;9.344;2023-06-04T08:07:35;19.40;84.20
46364;DHT22;32071;49.036;9.344;2023-06-04T08:10:02;19.50;84.70
46364;DHT22;32071;49.036;9.344;2023-06-04T08:12:27;19.70;86.80
46364;DHT22;32071;49.036;9.344;2023-06-04T08:14:53;19.80;85.70
46364;DHT22;32071;49.036;9.344;2023-06-04T08:17:22;19.90;86.10
46364;DHT22;32071;49.036;9.344;2023-06-04T08:19:47;19.90;84.60
46364;DHT22;32071;49.036;9.344;2023-06-04T08:22:13;19.90;86.50
46364;DHT22;32071;49.036;9.344;2023-06-04T08:24:39;20.10;77.40
46364;DHT22;32071;49.036;9.344;2023-06-04T08:27:04;20.40;76.90
46364;DHT22;32071;49.036;9.344;2023-06-04T08:29:30;20.60;75.20
46364;DHT22;32071;49.036;9.344;2023-06-04T08:31:55;20.70;76.20
46364;DHT22;32071;49.036;9.344;2023-06-04T08:34:21;20.90;74.40
46364;DHT22;32071;49.036;9.344;2023-06-04T08:36:46;21.00;71.20
46364;DHT22;32071;49.036;9.344;2023-06-04T08:39:12;21.00;70.20
46364;DHT22;32071;49.036;9.344;2023-06-04T08:42:06;21.10;72.60
46364;DHT22;32071;49.036;9.344;2023-06-04T08:44:31;21.20;66.80
46364;DHT22;32071;49.036;9.344;2023-06-04T08:47:03;21.20;68.00
46364;DHT22;32071;49.036;9.344;2023-06-04T08:49:34;21.30;62.30
46364;DHT22;32071;49.036;9.344;2023-06-04T08:52:03;21.40;63.10
46364;DHT22;32071;49.036;9.344;2023-06-04T08:54:29;21.50;66.90
46364;DHT22;32071;49.036;9.344;2023-06-04T08:56:57;21.60;66.90
46364;DHT22;32071;49.036;9.344;2023-06-04T08:59:23;21.80;67.20
46364;DHT22;32071;49.036;9.344;2023-06-04T09:01:52;21.90;61.80
46364;DHT22;32071;49.036;9.344;2023-06-04T09:04:18;22.10;63.70
46364;DHT22;32071;49.036;9.344;2023-06-04T09:06:44;22.10;59.60
46364;DHT22;32071;49.036;9.344;2023-06-04T09:09:12;22.00;59.90
46364;DHT22;32071;49.036;9.344;2023-06-04T09:11:55;22.10;62.50
46364;DHT22;32071;49.036;9.344;2023-06-04T09:14:22;22.10;65.80
46364;DHT22;32071;49.036;9.344;2023-06-04T09:16:52;22.20;61.70
46364;DHT22;32071;49.036;9.344;2023-06-04T09:19:20;22.20;60.90
46364;DHT22;32071;49.036;9.344;2023-06-04T09:21:54;22.30;62.60
46364;DHT22;32071;49.036;9.344;2023-06-04T09:24:21;22.40;59.20
46364;DHT22;32071;49.036;9.344;2023-06-04T09:26:47;22.40;60.80
46364;DHT22;32071;49.036;9.344;2023-06-04T09:29:14;22.50;60.60
46364;DHT22;32071;49.036;9.344;2023-06-04T09:31:40;22.60;61.00
46364;DHT22;32071;49.036;9.344;2023-06-04T09:34:06;22.60;59.90
46364;DHT22;32071;49.036;9.344;2023-06-04T09:36:36;22.70;59.50
46364;DHT22;32071;49.036;9.344;2023-06-04T09:39:03;22.80;58.70
46364;DHT22;32071;49.036;9.344;2023-06-04T09:41:29;22.80;61.50
46364;DHT22;32071;49.036;9.344;2023-06-04T09:44:02;22.90;60.30
46364;DHT22;32071;49.036;9.344;2023-06-04T09:46:28;23.00;59.60
46364;DHT22;32071;49.036;9.344;2023-06-04T09:49:00;22.90;60.20
46364;DHT22;32071;49.036;9.344;2023-06-04T09:51:26;23.00;61.70
46364;DHT22;32071;49.036;9.344;2023-06-04T09:54:00;23.00;58.10
46364;DHT22;32071;49.036;9.344;2023-06-04T09:56:26;22.90;59.00
46364;DHT22;32071;49.036;9.344;2023-06-04T09:58:57;23.00;64.00
46364;DHT22;32071;49.036;9.344;2023-06-04T10:01:25;23.10;61.90
46364;DHT22;32071;49.036;9.344;2023-06-04T10:03:53;23.20;56.80
46364;DHT22;32071;49.036;9.344;2023-06-04T10:06:19;23.20;58.70
46364;DHT22;32071;49.036;9.344;2023-06-04T10:08:48;23.30;60.70
46364;DHT22;32071;49.036;9.344;2023-06-04T10:11:22;23.40;60.60
46364;DHT22;32071;49.036;9.344;2023-06-04T10:13:53;23.40;58.10
46364;DHT22;32071;49.036;9.344;2023-06-04T10:16:20;23.30;57.40
46364;DHT22;32071;49.036;9.344;2023-06-04T10:18:46;23.30;57.30
46364;DHT22;32071;49.036;9.344;2023-06-04T10:21:13;23.40;59.80
46364;DHT22;32071;49.036;9.344;2023-06-04T10:23:40;23.60;59.80
46364;DHT22;32071;49.036;9.344;2023-06-04T10:26:13;23.80;56.80
46364;DHT22;32071;49.036;9.344;2023-06-04T10:28:40;23.80;57.00
46364;DHT22;32071;49.036;9.344;2023-06-04T10:31:06;23.90;59.70
46364;DHT22;32071;49.036;9.344;2023-06-04T10:33:32;23.90;57.80
46364;DHT22;32071;49.036;9.344;2023-06-04T10:35:58;24.00;59.30
46364;DHT22;32071;49.036;9.344;2023-06-04T10:38:24;24.00;59.00
46364;DHT22;32071;49.036;9.344;2023-06-04T10:40:50;24.10;57.00
46364;DHT22;32071;49.036;9.344;2023-06-04T10:43:15;24.10;57.50
46364;DHT22;32071;49.036;9.344;2023-06-04T10:45:42;24.30;58.00
46364;DHT22;32071;49.036;9.344;2023-06-04T10:48:09;24.50;59.80
46364;DHT22;32071;49.036;9.344;2023-06-04T10:50:47;24.60;58.20
46364;DHT22;32071;49.036;9.344;2023-06-04T10:53:13;24.60;57.50
46364;DHT22;32071;49.036;9.344;2023-06-04T10:55:46;24.60;61.40
46364;DHT22;32071;49.036;9.344;2023-06-04T10:58:12;24.60;54.90
46364;DHT22;32071;49.036;9.344;2023-06-04T11:00:40;24.50;55.60
46364;DHT22;32071;49.036;9.344;2023-06-04T11:03:07;24.60;58.10
46364;DHT22;32071;49.036;9.344;2023-06-04T11:05:40;24.80;62.60
46364;DHT22;32071;49.036;9.344;2023-06-04T11:08:07;24.90;56.50
46364;DHT22;32071;49.036;9.344;2023-06-04T11:10:37;25.00;60.10
46364;DHT22;32071;49.036;9.344;2023-06-04T11:13:04;25.10;57.70
46364;DHT22;32071;49.036;9.344;2023-06-04T11:15:44;25.30;60.80
46364;DHT22;32071;49.036;9.344;2023-06-04T11:18:19;25.40;59.90
46364;DHT22;32071;49.036;9.344;2023-06-04T11:20:47;25.50;57.50
46364;DHT22;32071;49.036;9.344;2023-06-04T11:23:14;25.60;55.00
46364;DHT22;32071;49.036;9.344;2023-06-04T11:25:41;25.50;55.90
46364;DHT22;32071;49.036;9.344;2023-06-04T11:28:13;25.20;54.00
46364;DHT22;32071;49.036;9.344;2023-06-04T11:30:39;25.00;54.40
46364;DHT22;32071;49.036;9.344;2023-06-04T11:33:05;25.10;58.50
46364;DHT22;32071;49.036;9.344;2023-06-04T11:35:32;25.40;59.90
46364;DHT22;32071;49.036;9.344;2023-06-04T11:38:05;25.60;59.30
46364;DHT22;32071;49.036;9.344;2023-06-04T11:40:30;25.80;56.30
46364;DHT22;32071;49.036;9.344;2023-06-04T11:42:56;25.70;54.80
46364;DHT22;32071;49.036;9.344;2023-06-04T11:45:23;25.60;56.70
46364;DHT22;32071;49.036;9.344;2023-06-04T11:47:51;25.70;57.10
46364;DHT22;32071;49.036;9.344;2023-06-04T11:50:17;25.90;58.30
46364;DHT22;32071;49.036;9.344;2023-06-04T11:52:43;26.10;53.70
46364;DHT22;32071;49.036;9.344;2023-06-04T11:55:10;26.10;51.80
46364;DHT22;32071;49.036;9.344;2023-06-04T11:57:37;25.90;53.10
46364;DHT22;32071;49.036;9.344;2023-06-04T12:00:04;25.60;54.50
46364;DHT22;32071;49.036;9.344;2023-06-04T12:02:37;26.00;52.50
46364;DHT22;32071;49.036;9.344;2023-06-04T12:05:14;26.40;53.00
46364;DHT22;32071;49.036;9.344;2023-06-04T12:07:41;27.10;50.40
46364;DHT22;32071;49.036;9.344;2023-06-04T12:10:11;27.60;49.90
46364;DHT22;32071;49.036;9.344;2023-06-04T12:12:40;27.90;50.20
46364;DHT22;32071;49.036;9.344;2023-06-04T12:15:07;28.00;47.70
46364;DHT22;32071;49.036;9.344;2023-06-04T12:17:33;28.30;48.60
46364;DHT22;32071;49.036;9.344;2023-06-04T12:19:58;28.60;48.10
46364;DHT22;32071;49.036;9.344;2023-06-04T12:22:25;28.50;46.10
46364;DHT22;32071;49.036;9.344;2023-06-04T12:24:55;28.50;47.10
46364;DHT22;32071;49.036;9.344;2023-06-04T12:27:23;28.80;48.20
46364;DHT22;32071;49.036;9.344;2023-06-04T12:32:21;29.40;46.30
46364;DHT22;32071;49.036;9.344;2023-06-04T12:34:46;29.50;46.70
46364;DHT22;32071;49.036;9.344;2023-06-04T12:37:13;29.90;46.10
46364;DHT22;32071;49.036;9.344;2023-06-04T12:39:39;30.40;44.40
46364;DHT22;32071;49.036;9.344;2023-06-04T12:42:06;30.60;46.00
46364;DHT22;32071;49.036;9.344;2023-06-04T12:44:32;31.30;41.70
46364;DHT22;32071;49.036;9.344;2023-06-04T12:46:58;31.20;41.10
46364;DHT22;32071;49.036;9.344;2023-06-04T12:49:23;31.60;40.90
46364;DHT22;32071;49.036;9.344;2023-06-04T12:51:49;31.70;42.50
46364;DHT22;32071;49.036;9.344;2023-06-04T12:54:15;32.00;44.40
46364;DHT22;32071;49.036;9.344;2023-06-04T12:56:40;32.20;41.60
46364;DHT22;32071;49.036;9.344;2023-06-04T12:59:07;32.20;42.10
46364;DHT22;32071;49.036;9.344;2023-06-04T13:01:32;31.80;40.20
46364;DHT22;32071;49.036;9.344;2023-06-04T13:03:58;31.70;42.20
46364;DHT22;32071;49.036;9.344;2023-06-04T13:06:24;32.30;43.10
46364;DHT22;32071;49.036;9.344;2023-06-04T13:08:49;31.30;41.50
46364;DHT22;32071;49.036;9.344;2023-06-04T13:11:15;31.20;42.20
46364;DHT22;32071;49.036;9.344;2023-06-04T13:13:41;31.50;43.70
46364;DHT22;32071;49.036;9.344;2023-06-04T13:16:07;31.60;41.90
46364;DHT22;32071;49.036;9.344;2023-06-04T13:18:33;30.60;41.80
46364;DHT22;32071;49.036;9.344;2023-06-04T13:21:00;30.90;44.80
46364;DHT22;32071;49.036;9.344;2023-06-04T13:23:26;31.50;41.90
46364;DHT22;32071;49.036;9.344;2023-06-04T13:25:51;31.70;42.20
46364;DHT22;32071;49.036;9.344;2023-06-04T13:28:17;32.20;41.00
46364;DHT22;32071;49.036;9.344;2023-06-04T13:30:43;33.20;40.00
46364;DHT22;32071;49.036;9.344;2023-06-04T13:33:09;33.70;39.10
46364;DHT22;32071;49.036;9.344;2023-06-04T13:35:35;33.50;39.20
46364;DHT22;32071;49.036;9.344;2023-06-04T13:38:03;33.50;39.00
46364;DHT22;32071;49.036;9.344;2023-06-04T13:40:29;34.10;37.80
46364;DHT22;32071;49.036;9.344;2023-06-04T13:42:57;34.40;37.40
46364;DHT22;32071;49.036;9.344;2023-06-04T13:45:23;34.50;36.30
46364;DHT22;32071;49.036;9.344;2023-06-04T13:47:49;34.20;37.40
46364;DHT22;32071;49.036;9.344;2023-06-04T13:50:14;33.90;36.90
46364;DHT22;32071;49.036;9.344;2023-06-04T13:52:40;33.00;37.40
46364;DHT22;32071;49.036;9.344;2023-06-04T13:55:08;33.70;37.90
46364;DHT22;32071;49.036;9.344;2023-06-04T13:57:33;34.20;36.50
46364;DHT22;32071;49.036;9.344;2023-06-04T13:59:59;34.60;36.70
46364;DHT22;32071;49.036;9.344;2023-06-04T14:02:25;34.40;36.70
46364;DHT22;32071;49.036;9.344;2023-06-04T14:04:53;34.90;36.70
46364;DHT22;32071;49.036;9.344;2023-06-04T14:07:19;34.10;36.40
46364;DHT22;32071;49.036;9.344;2023-06-04T14:09:45;34.50;36.00
46364;DHT22;32071;49.036;9.344;2023-06-04T14:12:10;35.10;36.50
46364;DHT22;32071;49.036;9.344;2023-06-04T14:14:36;35.80;34.70
46364;DHT22;32071;49.036;9.344;2023-06-04T14:17:05;34.00;36.10
46364;DHT22;32071;49.036;9.344;2023-06-04T14:19:32;32.90;36.30
46364;DHT22;32071;49.036;9.344;2023-06-04T14:21:58;32.90;36.90
46364;DHT22;32071;49.036;9.344;2023-06-04T14:24:23;34.10;36.20
46364;DHT22;32071;49.036;9.344;2023-06-04T14:26:49;35.00;35.50
46364;DHT22;32071;49.036;9.344;2023-06-04T14:29:15;35.20;34.20
46364;DHT22;32071;49.036;9.344;2023-06-04T14:31:40;35.70;34.80
46364;DHT22;32071;49.036;9.344;2023-06-04T14:34:06;37.00;32.70
46364;DHT22;32071;49.036;9.344;2023-06-04T14:36:32;37.60;32.80
46364;DHT22;32071;49.036;9.344;2023-06-04T14:38:58;38.50;32.30
46364;DHT22;32071;49.036;9.344;2023-06-04T14:41:24;38.10;33.60
46364;DHT22;32071;49.036;9.344;2023-06-04T14:43:49;37.90;32.10
46364;DHT22;32071;49.036;9.344;2023-06-04T14:46:16;37.70;32.60
46364;DHT22;32071;49.036;9.344;2023-06-04T14:48:41;37.90;31.80
46364;DHT22;32071;49.036;9.344;2023-06-04T14:51:07;38.00;32.00
46364;DHT22;32071;49.036;9.344;2023-06-04T14:53:33;38.20;33.30
46364;DHT22;32071;49.036;9.344;2023-06-04T14:55:58;39.10;31.90
46364;DHT22;32071;49.036;9.344;2023-06-04T14:58:24;38.90;31.10
46364;DHT22;32071;49.036;9.344;2023-06-04T15:00:49;38.30;30.80
46364;DHT22;32071;49.036;9.344;2023-06-04T15:03:15;38.20;30.60
46364;DHT22;32071;49.036;9.344;2023-06-04T15:05:40;37.70;30.40
46364;DHT22;32071;49.036;9.344;2023-06-04T15:08:06;37.60;32.30
46364;DHT22;32071;49.036;9.344;2023-06-04T15:10:32;37.70;31.50
46364;DHT22;32071;49.036;9.344;2023-06-04T15:12:59;37.70;31.10
46364;DHT22;32071;49.036;9.344;2023-06-04T15:15:25;37.20;32.20
46364;DHT22;32071;49.036;9.344;2023-06-04T15:17:51;35.60;31.30
46364;DHT22;32071;49.036;9.344;2023-06-04T15:20:17;34.70;32.50
46364;DHT22;32071;49.036;9.344;2023-06-04T15:22:43;34.90;33.90
46364;DHT22;32071;49.036;9.344;2023-06-04T15:25:09;34.40;33.40
46364;DHT22;32071;49.036;9.344;2023-06-04T15:27:34;34.90;33.90
46364;DHT22;32071;49.036;9.344;2023-06-04T15:30:00;35.40;34.80
46364;DHT22;32071;49.036;9.344;2023-06-04T15:32:26;36.10;31.40
46364;DHT22;32071;49.036;9.344;2023-06-04T15:34:52;37.20;31.20
46364;DHT22;32071;49.036;9.344;2023-06-04T15:37:18;37.90;30.40